createdAt,value
2018-07-27T00:01:03.580Z,49.29
2018-07-27T00:02:08.606Z,49.13
2018-07-27T00:03:14.786Z,49.36
2018-07-27T00:04:20.629Z,49.04
2018-07-27T00:05:27.610Z,49.43
2018-07-27T00:06:33.026Z,49.41
2018-07-27T00:07:39.400Z,49.23
2018-07-27T00:08:45.202Z,49.70
2018-07-27T00:09:53.383Z,49.47
2018-07-27T00:11:01.181Z,49.78
2018-07-27T00:12:07.535Z,49.45
2018-07-27T00:13:14.639Z,49.45
2018-07-27T00:14:19.430Z,49.17
2018-07-27T00:15:26.034Z,49.20
2018-07-27T00:16:39.496Z,49.39
2018-07-27T00:17:48.228Z,49.73
2018-07-27T00:18:54.748Z,49.44
2018-07-27T00:20:00.757Z,49.70
2018-07-27T00:21:13.905Z,49.29
2018-07-27T00:22:23.813Z,49.65
2018-07-27T00:23:33.395Z,49.46
2018-07-27T00:24:42.434Z,49.68
2018-07-27T00:25:47.548Z,49.23
2018-07-27T00:26:52.533Z,49.85
2018-07-27T00:27:57.328Z,49.58
2018-07-27T00:29:03.261Z,49.53
2018-07-27T00:30:08.142Z,49.36
2018-07-27T00:31:14.376Z,49.84
2018-07-27T00:32:21.351Z,50.09
2018-07-27T00:33:26.126Z,49.55
2018-07-27T00:34:30.906Z,50.03
2018-07-27T00:35:35.625Z,50.32
2018-07-27T00:36:40.344Z,49.82
2018-07-27T00:37:46.448Z,50.40
2018-07-27T00:38:56.498Z,50.56
2018-07-27T00:40:01.273Z,50.45
2018-07-27T00:41:06.962Z,50.39
2018-07-27T00:42:11.706Z,50.63
2018-07-27T00:43:18.017Z,50.89
2018-07-27T00:44:23.524Z,50.26
2018-07-27T00:45:29.120Z,50.75
2018-07-27T00:46:33.838Z,50.17
2018-07-27T00:47:40.443Z,50.69
2018-07-27T00:48:45.967Z,50.66
2018-07-27T00:49:50.881Z,51.26
2018-07-27T00:50:56.327Z,51.49
2018-07-27T00:52:02.149Z,51.56
2018-07-27T00:53:08.630Z,51.59
2018-07-27T00:54:13.643Z,51.10
2018-07-27T00:55:20.177Z,51.14
2018-07-27T00:56:25.552Z,51.74
2018-07-27T00:57:31.777Z,51.68
2018-07-27T00:58:39.069Z,52.18
2018-07-27T00:59:44.637Z,52.18
2018-07-27T01:00:49.653Z,51.84
2018-07-27T01:01:54.532Z,51.38
2018-07-27T01:02:59.732Z,51.33
2018-07-27T01:04:05.807Z,51.66
2018-07-27T01:05:10.735Z,51.24
2018-07-27T01:06:16.419Z,51.70
2018-07-27T01:07:21.343Z,51.25
2018-07-27T01:08:26.286Z,52.09
2018-07-27T01:09:31.666Z,51.56
2018-07-27T01:10:39.065Z,52.08
2018-07-27T01:11:43.983Z,51.79
2018-07-27T01:12:49.926Z,52.21
2018-07-27T01:13:54.928Z,52.49
2018-07-27T01:14:59.777Z,52.00
2018-07-27T01:16:04.648Z,52.15
2018-07-27T01:17:11.048Z,51.59
2018-07-27T01:18:17.511Z,52.00
2018-07-27T01:19:22.454Z,52.26
2018-07-27T01:20:27.307Z,51.77
2018-07-27T01:21:32.218Z,51.88
2018-07-27T01:22:39.221Z,51.21
2018-07-27T01:23:45.042Z,51.10
2018-07-27T01:24:49.776Z,50.80
2018-07-27T01:25:54.742Z,50.57
2018-07-27T01:26:59.517Z,51.27
2018-07-27T01:28:04.370Z,50.58
2018-07-27T01:29:12.917Z,50.65
2018-07-27T01:30:18.178Z,50.80
2018-07-27T01:31:24.648Z,50.71
2018-07-27T01:32:29.636Z,50.67
2018-07-27T01:33:36.373Z,51.14
2018-07-27T01:34:41.246Z,51.11
2018-07-27T01:35:46.431Z,50.96
2018-07-27T01:36:51.838Z,50.96
2018-07-27T01:37:56.674Z,50.87
2018-07-27T01:39:01.475Z,50.61
2018-07-27T01:40:06.480Z,50.74
2018-07-27T01:41:11.234Z,50.53
2018-07-27T01:42:16.007Z,50.21
2018-07-27T01:43:20.822Z,50.63
2018-07-27T01:44:25.716Z,50.57
2018-07-27T01:45:30.630Z,50.14
2018-07-27T01:46:35.563Z,50.03
2018-07-27T01:47:41.450Z,49.93
2018-07-27T01:48:46.314Z,49.84
2018-07-27T01:49:51.580Z,49.73
2018-07-27T01:50:57.421Z,50.19
2018-07-27T01:52:02.342Z,49.48
2018-07-27T01:53:07.427Z,49.55
2018-07-27T01:54:12.239Z,49.92
2018-07-27T01:55:17.061Z,50.31
2018-07-27T01:56:22.346Z,50.36
2018-07-27T01:57:27.381Z,49.84
2018-07-27T01:58:32.164Z,50.49
2018-07-27T01:59:38.419Z,49.87
2018-07-27T02:00:44.111Z,49.90
2018-07-27T02:01:49.023Z,49.87
2018-07-27T02:02:54.379Z,50.05
2018-07-27T02:04:02.198Z,50.09
2018-07-27T02:05:07.282Z,49.87
2018-07-27T02:06:12.145Z,49.79
2018-07-27T02:07:17.062Z,49.60
2018-07-27T02:08:22.031Z,49.58
2018-07-27T02:09:27.368Z,49.51
2018-07-27T02:10:33.402Z,50.28
2018-07-27T02:11:38.349Z,50.22
2018-07-27T02:12:43.295Z,50.65
2018-07-27T02:13:50.013Z,50.25
2018-07-27T02:14:54.813Z,50.24
2018-07-27T02:16:02.325Z,50.29
2018-07-27T02:17:08.672Z,50.09
2018-07-27T02:18:13.623Z,50.25
2018-07-27T02:19:18.413Z,50.47
2018-07-27T02:20:26.913Z,49.80
2018-07-27T02:21:32.965Z,50.47
2018-07-27T02:22:38.220Z,50.10
2018-07-27T02:23:44.129Z,49.73
2018-07-27T02:24:49.685Z,49.95
2018-07-27T02:25:54.437Z,50.59
2018-07-27T02:26:59.833Z,49.95
2018-07-27T02:28:06.043Z,49.95
2018-07-27T02:29:10.790Z,49.81
2018-07-27T02:30:16.294Z,50.16
2018-07-27T02:31:24.018Z,49.91
2018-07-27T02:32:31.641Z,50.29
2018-07-27T02:33:37.143Z,50.71
2018-07-27T02:34:42.460Z,50.84
2018-07-27T02:35:47.325Z,51.17
2018-07-27T02:36:52.521Z,51.57
2018-07-27T02:37:57.515Z,51.60
2018-07-27T02:39:02.383Z,51.87
2018-07-27T02:40:08.700Z,52.30
2018-07-27T02:41:14.081Z,52.52
2018-07-27T02:42:19.847Z,52.86
2018-07-27T02:43:24.807Z,52.67
2018-07-27T02:44:29.693Z,52.39
2018-07-27T02:45:34.616Z,52.96
2018-07-27T02:46:41.349Z,52.52
2018-07-27T02:47:49.359Z,52.97
2018-07-27T02:48:54.301Z,52.36
2018-07-27T02:49:59.227Z,52.71
2018-07-27T02:51:04.123Z,52.59
2018-07-27T02:52:10.673Z,52.56
2018-07-27T02:53:15.544Z,52.09
2018-07-27T02:54:22.588Z,52.91
2018-07-27T02:55:27.468Z,53.41
2018-07-27T02:56:32.393Z,53.62
2018-07-27T02:57:37.304Z,53.44
2018-07-27T02:58:42.195Z,54.57
2018-07-27T02:59:46.944Z,53.81
2018-07-27T03:00:52.260Z,54.68
2018-07-27T03:01:57.033Z,54.57
2018-07-27T03:03:04.368Z,54.11
2018-07-27T03:04:09.136Z,54.65
2018-07-27T03:05:13.932Z,54.46
2018-07-27T03:06:19.192Z,54.38
2018-07-27T03:07:24.447Z,53.46
2018-07-27T03:08:29.217Z,53.58
2018-07-27T03:09:34.977Z,53.41
2018-07-27T03:10:39.802Z,53.76
2018-07-27T03:11:44.582Z,53.94
2018-07-27T03:12:49.447Z,53.39
2018-07-27T03:13:56.166Z,53.64
2018-07-27T03:15:00.949Z,53.89
2018-07-27T03:16:05.770Z,53.54
2018-07-27T03:17:10.523Z,53.38
2018-07-27T03:18:15.304Z,53.39
2018-07-27T03:19:20.202Z,53.92
2018-07-27T03:20:25.615Z,53.65
2018-07-27T03:21:30.492Z,53.81
2018-07-27T03:22:35.489Z,53.18
2018-07-27T03:23:40.401Z,53.22
2018-07-27T03:24:45.296Z,53.13
2018-07-27T03:25:50.160Z,53.00
2018-07-27T03:26:55.434Z,53.06
2018-07-27T03:28:00.533Z,53.69
2018-07-27T03:29:06.031Z,53.53
2018-07-27T03:30:10.814Z,53.03
2018-07-27T03:31:15.581Z,53.15
2018-07-27T03:32:20.334Z,53.95
2018-07-27T03:33:25.507Z,53.83
2018-07-27T03:34:30.249Z,53.71
2018-07-27T03:50:23.821Z,54.39
2018-07-27T03:51:28.745Z,54.53
2018-07-27T03:52:33.623Z,53.71
2018-07-27T03:53:38.503Z,54.44
2018-07-27T03:54:44.318Z,54.11
2018-07-27T03:55:49.570Z,54.02
2018-07-27T03:56:54.463Z,54.09
2018-07-27T03:57:59.342Z,54.44
2018-07-27T03:59:04.203Z,53.82
2018-07-27T04:00:10.087Z,53.82
2018-07-27T04:01:16.126Z,54.32
2018-07-27T04:02:21.377Z,53.74
2018-07-27T04:03:26.346Z,54.12
2018-07-27T04:04:31.232Z,54.49
2018-07-27T04:05:36.149Z,54.56
2018-07-27T04:06:40.996Z,54.46
2018-07-27T04:07:45.919Z,54.56
2018-07-27T04:08:51.247Z,54.45
2018-07-27T04:09:56.124Z,54.69
2018-07-27T04:11:00.978Z,54.55
2018-07-27T04:12:06.241Z,54.92
2018-07-27T04:13:11.181Z,55.17
2018-07-27T04:14:16.057Z,55.18
2018-07-27T04:15:21.531Z,54.49
2018-07-27T04:16:26.453Z,54.29
2018-07-27T04:17:31.333Z,54.99
2018-07-27T04:18:36.219Z,54.95
2018-07-27T04:19:42.558Z,54.62
2018-07-27T04:20:47.496Z,54.90
2018-07-27T04:21:52.792Z,54.49
2018-07-27T04:22:57.711Z,54.05
2018-07-27T04:24:02.630Z,54.06
2018-07-27T04:25:07.539Z,54.24
2018-07-27T04:26:12.490Z,54.62
2018-07-27T04:27:19.400Z,54.57
2018-07-27T04:28:24.749Z,54.71
2018-07-27T04:29:29.687Z,53.96
2018-07-27T04:30:34.678Z,53.79
2018-07-27T04:31:39.589Z,53.70
2018-07-27T04:32:44.465Z,54.37
2018-07-27T04:33:49.332Z,53.88
2018-07-27T04:34:57.176Z,54.08
2018-07-27T04:36:02.994Z,54.95
2018-07-27T04:37:07.996Z,55.32
2018-07-27T04:38:13.333Z,55.77
2018-07-27T04:39:18.378Z,55.13
2018-07-27T04:40:23.139Z,55.59
2018-07-27T04:41:28.198Z,55.72
2018-07-27T04:42:32.961Z,55.64
2018-07-27T04:43:38.275Z,56.12
2018-07-27T04:44:43.016Z,55.42
2018-07-27T04:45:50.763Z,55.40
2018-07-27T04:46:55.664Z,55.26
2018-07-27T04:48:01.556Z,55.77
2018-07-27T04:49:07.670Z,56.01
2018-07-27T04:50:12.565Z,55.40
2018-07-27T04:51:17.491Z,56.03
2018-07-27T04:52:22.506Z,55.71
2018-07-27T04:53:27.420Z,55.33
2018-07-27T04:54:32.814Z,55.88
2018-07-27T04:55:37.686Z,55.86
2018-07-27T04:56:42.621Z,56.08
2018-07-27T04:57:47.523Z,55.28
2018-07-27T04:58:52.983Z,56.03
2018-07-27T04:59:58.841Z,55.25
2018-07-27T05:01:04.094Z,55.62
2018-07-27T05:02:09.094Z,56.48
2018-07-27T05:03:14.283Z,56.31
2018-07-27T05:04:19.495Z,56.23
2018-07-27T05:05:25.381Z,55.87
2018-07-27T05:06:31.254Z,56.17
2018-07-27T05:07:36.504Z,56.23
2018-07-27T05:08:46.691Z,55.81
2018-07-27T05:09:51.593Z,56.65
2018-07-27T05:10:58.099Z,57.19
2018-07-27T05:12:02.972Z,57.45
2018-07-27T05:13:08.299Z,56.86
2018-07-27T05:14:13.574Z,56.94
2018-07-27T05:15:19.168Z,56.45
2018-07-27T05:16:25.720Z,56.97
2018-07-27T05:17:30.613Z,56.54
2018-07-27T05:18:36.494Z,56.46
2018-07-27T05:19:41.525Z,56.37
2018-07-27T05:20:46.983Z,56.61
2018-07-27T05:21:51.861Z,55.95
2018-07-27T05:22:57.379Z,56.35
2018-07-27T05:24:02.371Z,56.57
2018-07-27T05:25:07.277Z,56.70
2018-07-27T05:26:12.453Z,57.32
2018-07-27T05:27:19.023Z,58.29
2018-07-27T05:28:24.764Z,58.40
2018-07-27T05:29:29.684Z,57.46
2018-07-27T05:30:34.669Z,57.47
2018-07-27T05:31:39.558Z,56.74
2018-07-27T05:32:44.507Z,56.30
2018-07-27T05:33:50.779Z,56.59
2018-07-27T05:34:55.726Z,56.27
2018-07-27T05:36:00.589Z,55.63
2018-07-27T05:37:06.402Z,55.86
2018-07-27T05:38:12.158Z,55.26
2018-07-27T05:39:18.920Z,54.85
2018-07-27T05:40:24.231Z,55.77
2018-07-27T05:41:29.155Z,55.47
2018-07-27T05:42:35.020Z,54.48
2018-07-27T05:43:39.947Z,55.10
2018-07-27T05:44:44.837Z,54.87
2018-07-27T05:45:49.756Z,55.53
2018-07-27T05:46:55.927Z,55.49
2018-07-27T05:48:01.459Z,55.72
2018-07-27T05:49:06.429Z,55.52
2018-07-27T05:50:11.329Z,55.72
2018-07-27T05:51:17.087Z,54.99
2018-07-27T05:52:21.948Z,54.76
2018-07-27T05:53:27.112Z,54.73
2018-07-27T05:54:32.080Z,54.90
2018-07-27T05:55:37.048Z,54.55
2018-07-27T05:56:42.656Z,54.40
2018-07-27T05:57:47.587Z,54.72
2018-07-27T05:58:52.687Z,54.26
2018-07-27T05:59:57.898Z,54.55
2018-07-27T06:01:02.908Z,53.89
2018-07-27T06:02:10.435Z,54.18
2018-07-27T06:03:12.839Z,54.16
2018-07-27T06:04:17.745Z,53.66
2018-07-27T06:05:22.626Z,54.05
2018-07-27T06:06:28.749Z,53.99
2018-07-27T06:07:33.680Z,54.27
2018-07-27T06:08:38.652Z,53.62
2018-07-27T06:09:43.653Z,53.58
2018-07-27T06:10:48.641Z,53.74
2018-07-27T06:11:54.546Z,53.50
2018-07-27T06:13:03.548Z,53.52
2018-07-27T06:14:11.475Z,53.26
2018-07-27T06:15:17.600Z,53.23
2018-07-27T06:16:23.827Z,53.24
2018-07-27T06:17:29.123Z,52.79
2018-07-27T06:18:34.802Z,52.36
2018-07-27T06:19:41.356Z,52.13
2018-07-27T06:20:46.766Z,51.82
2018-07-27T06:21:52.027Z,51.71
2018-07-27T06:22:56.902Z,51.52
2018-07-27T06:24:01.727Z,51.63
2018-07-27T06:25:07.682Z,51.47
2018-07-27T06:26:13.121Z,51.38
2018-07-27T06:27:18.255Z,51.45
2018-07-27T06:28:23.234Z,51.50
2018-07-27T06:29:28.186Z,51.66
2018-07-27T06:30:33.954Z,51.36
2018-07-27T06:31:40.004Z,51.51
2018-07-27T06:32:45.401Z,51.17
2018-07-27T06:33:50.449Z,51.04
2018-07-27T06:34:56.388Z,50.90
2018-07-27T06:36:01.367Z,50.67
2018-07-27T06:37:06.242Z,50.67
2018-07-27T06:38:11.136Z,50.47
2018-07-27T06:39:16.498Z,50.23
2018-07-27T06:40:21.425Z,50.08
2018-07-27T06:41:30.112Z,49.96
2018-07-27T06:42:35.587Z,49.98
2018-07-27T06:43:40.550Z,49.67
2018-07-27T06:44:45.679Z,49.78
2018-07-27T06:45:50.958Z,49.48
2018-07-27T06:46:55.966Z,49.69
2018-07-27T06:48:01.028Z,49.80
2018-07-27T06:49:06.122Z,49.59
2018-07-27T06:50:11.132Z,48.91
2018-07-27T06:51:16.221Z,49.10
2018-07-27T06:52:21.751Z,49.01
2018-07-27T06:53:27.703Z,48.93
2018-07-27T06:54:33.623Z,48.98
2018-07-27T06:55:39.301Z,48.89
2018-07-27T06:56:46.486Z,48.68
2018-07-27T06:57:51.320Z,48.61
2018-07-27T06:58:57.170Z,48.71
2018-07-27T07:00:02.040Z,48.24
2018-07-27T07:01:07.161Z,48.74
2018-07-27T07:02:12.025Z,48.14
2018-07-27T07:03:16.938Z,48.20
2018-07-27T07:04:21.855Z,48.37
2018-07-27T07:05:27.146Z,48.12
2018-07-27T07:06:32.065Z,47.62
2018-07-27T07:07:36.953Z,48.12
2018-07-27T07:08:41.856Z,47.43
2018-07-27T07:09:47.326Z,47.22
2018-07-27T07:10:52.202Z,47.36
2018-07-27T07:11:57.465Z,47.12
2018-07-27T07:13:02.383Z,47.33
2018-07-27T07:14:08.618Z,47.19
2018-07-27T07:15:13.491Z,46.87
2018-07-27T07:16:18.771Z,46.85
2018-07-27T07:17:29.540Z,46.69
2018-07-27T07:18:34.447Z,46.62
2018-07-27T07:19:39.243Z,46.53
2018-07-27T07:20:44.052Z,46.05
2018-07-27T07:21:49.014Z,45.36
2018-07-27T07:22:54.019Z,45.16
2018-07-27T07:23:59.486Z,44.48
2018-07-27T07:25:04.432Z,43.52
2018-07-27T07:26:09.714Z,43.42
2018-07-27T07:27:15.030Z,43.48
2018-07-27T07:28:19.937Z,43.29
2018-07-27T07:29:24.987Z,42.22
2018-07-27T07:30:30.376Z,41.89
2018-07-27T07:31:35.271Z,41.04
2018-07-27T07:32:40.164Z,40.72
2018-07-27T07:33:45.096Z,40.85
2018-07-27T07:34:51.134Z,40.53
2018-07-27T07:35:56.250Z,40.61
2018-07-27T07:37:01.596Z,40.32
2018-07-27T07:38:06.501Z,40.07
2018-07-27T07:39:13.572Z,39.88
2018-07-27T07:40:18.393Z,39.74
2018-07-27T07:41:23.232Z,39.38
2018-07-27T07:42:28.400Z,39.17
2018-07-27T07:43:33.700Z,38.87
2018-07-27T07:44:39.071Z,39.21
2018-07-27T07:45:43.903Z,38.79
2018-07-27T07:46:52.039Z,38.62
2018-07-27T07:47:57.457Z,38.63
2018-07-27T07:49:06.370Z,38.57
2018-07-27T07:50:13.298Z,38.30
2018-07-27T07:51:18.306Z,38.02
2018-07-27T07:52:23.304Z,37.54
2018-07-27T07:53:29.242Z,36.69
2018-07-27T07:54:34.079Z,36.34
2018-07-27T07:55:39.461Z,36.69
2018-07-27T07:56:45.759Z,36.80
2018-07-27T07:57:50.788Z,36.59
2018-07-27T07:58:56.363Z,36.61
2018-07-27T08:00:01.621Z,36.23
2018-07-27T08:01:07.561Z,35.71
2018-07-27T08:02:12.454Z,35.88
2018-07-27T08:03:17.675Z,35.65
2018-07-27T08:04:24.454Z,35.11
2018-07-27T08:05:29.471Z,35.06
2018-07-27T08:06:34.397Z,34.99
2018-07-27T08:07:39.482Z,34.62
2018-07-27T08:08:44.396Z,34.44
2018-07-27T08:09:49.630Z,34.37
2018-07-27T08:11:02.195Z,34.25
2018-07-27T08:12:11.930Z,33.93
2018-07-27T08:13:18.943Z,33.97
2018-07-27T08:14:25.456Z,33.86
2018-07-27T08:15:31.893Z,33.77
2018-07-27T08:16:37.743Z,33.72
2018-07-27T08:17:42.867Z,33.88
2018-07-27T08:18:48.652Z,33.39
2018-07-27T08:19:54.575Z,33.56
2018-07-27T08:21:00.533Z,33.51
2018-07-27T08:22:06.425Z,33.37
2018-07-27T08:23:12.638Z,33.52
2018-07-27T08:24:17.619Z,33.32
2018-07-27T08:25:23.434Z,33.51
2018-07-27T08:26:44.094Z,33.19
2018-07-27T08:27:53.146Z,33.20
2018-07-27T08:28:58.367Z,33.40
2018-07-27T08:30:03.260Z,32.90
2018-07-27T08:31:11.351Z,33.33
2018-07-27T08:32:16.517Z,33.21
2018-07-27T08:33:23.210Z,33.16
2018-07-27T08:34:29.087Z,32.88
2018-07-27T08:35:34.847Z,33.13
2018-07-27T08:36:39.739Z,33.01
2018-07-27T08:37:46.409Z,33.19
2018-07-27T08:38:51.572Z,32.81
2018-07-27T08:39:56.987Z,32.67
2018-07-27T08:41:01.900Z,32.75
2018-07-27T08:42:08.676Z,32.29
2018-07-27T08:43:15.063Z,32.52
2018-07-27T08:44:21.312Z,32.31
2018-07-27T08:45:26.219Z,31.89
2018-07-27T08:46:31.389Z,31.96
2018-07-27T08:47:36.260Z,32.18
2018-07-27T08:48:41.560Z,32.13
2018-07-27T08:49:47.476Z,32.09
2018-07-27T08:50:54.114Z,31.88
2018-07-27T08:51:59.054Z,31.80
2018-07-27T08:53:04.700Z,32.29
2018-07-27T08:54:10.128Z,32.31
2018-07-27T08:55:15.622Z,31.78
2018-07-27T08:56:20.580Z,31.65
2018-07-27T08:57:25.538Z,31.33
2018-07-27T08:58:30.435Z,31.91
2018-07-27T08:59:36.522Z,31.35
2018-07-27T09:00:47.224Z,31.58
2018-07-27T09:01:58.295Z,31.58
2018-07-27T09:03:08.760Z,31.41
2018-07-27T09:04:18.120Z,30.56
2018-07-27T09:05:23.238Z,30.37
2018-07-27T09:06:29.002Z,30.57
2018-07-27T09:07:34.722Z,30.44
2018-07-27T09:09:43.544Z,0.00
2018-07-27T09:10:48.595Z,29.88
2018-07-27T09:11:53.690Z,30.14
2018-07-27T09:13:00.684Z,29.54
2018-07-27T09:14:07.758Z,0.00
2018-07-27T09:15:18.021Z,100.00
2018-07-27T09:16:23.344Z,29.31
2018-07-27T09:17:30.506Z,29.59
2018-07-27T09:18:35.406Z,29.79
2018-07-27T09:19:40.576Z,29.54
2018-07-27T09:21:51.846Z,29.12
2018-07-27T09:22:59.765Z,29.50
2018-07-27T09:24:05.645Z,29.03
2018-07-27T09:25:10.790Z,29.72
2018-07-27T09:26:37.048Z,29.76
2018-07-27T09:27:42.362Z,29.56
2018-07-27T09:28:47.411Z,29.81
2018-07-27T09:29:52.375Z,29.82
2018-07-27T09:30:58.047Z,29.65
2018-07-27T09:32:17.056Z,29.59
2018-07-27T09:33:23.096Z,29.61
2018-07-27T09:34:28.072Z,29.87
2018-07-27T09:35:35.582Z,29.84
2018-07-27T09:36:41.435Z,29.81
2018-07-27T09:37:47.056Z,29.92
2018-07-27T09:38:52.258Z,30.00
2018-07-27T09:39:59.183Z,29.61
2018-07-27T09:41:04.229Z,29.30
2018-07-27T09:42:09.246Z,29.26
2018-07-27T09:43:16.912Z,29.19
2018-07-27T09:44:21.806Z,29.52
2018-07-27T09:45:27.714Z,29.57
2018-07-27T09:46:33.232Z,29.57
2018-07-27T09:47:39.809Z,29.33
2018-07-27T10:05:47.288Z,28.14
2018-07-27T10:06:53.340Z,28.42
2018-07-27T10:07:58.299Z,28.07
2018-07-27T10:09:03.188Z,28.44
2018-07-27T10:10:10.363Z,28.44
2018-07-27T10:11:15.721Z,28.41
2018-07-27T10:12:21.250Z,28.68
2018-07-27T10:13:29.702Z,28.79
2018-07-27T10:14:35.227Z,28.80
2018-07-27T10:15:40.000Z,29.39
2018-07-27T10:16:45.267Z,29.09
2018-07-27T10:17:51.565Z,29.36
2018-07-27T10:18:56.296Z,29.49
2018-07-27T10:20:02.425Z,29.34
2018-07-27T10:21:08.376Z,29.13
2018-07-27T10:22:14.037Z,28.72
2018-07-27T10:23:18.877Z,28.84
2018-07-27T10:24:24.274Z,28.49
2018-07-27T10:25:33.673Z,28.50
2018-07-27T10:26:40.350Z,27.75
2018-07-27T10:27:45.363Z,28.12
2018-07-27T10:28:51.125Z,28.17
2018-07-27T10:29:57.897Z,28.14
2018-07-27T10:31:03.555Z,27.83
2018-07-27T10:32:10.673Z,27.86
2018-07-27T10:33:16.223Z,28.15
2018-07-27T10:34:23.032Z,28.10
2018-07-27T10:35:29.327Z,27.76
2018-07-27T10:36:35.262Z,28.03
2018-07-27T10:37:41.994Z,27.95
2018-07-27T10:38:47.014Z,27.27
2018-07-27T10:39:56.633Z,27.78
2018-07-27T10:41:01.584Z,27.27
2018-07-27T10:42:10.085Z,27.13
2018-07-27T10:43:14.865Z,27.49
2018-07-27T10:44:20.389Z,27.34
2018-07-27T10:45:26.357Z,27.21
2018-07-27T10:46:34.238Z,27.22
2018-07-27T10:47:42.767Z,27.40
2018-07-27T10:48:52.177Z,27.48
2018-07-27T10:50:00.821Z,27.50
2018-07-27T10:51:07.289Z,27.00
2018-07-27T10:52:12.302Z,27.04
2018-07-27T10:53:17.147Z,26.99
2018-07-27T10:54:24.594Z,26.89
2018-07-27T10:55:30.516Z,26.73
2018-07-27T10:56:36.579Z,26.87
2018-07-27T10:57:41.754Z,26.67
2018-07-27T10:58:50.642Z,26.54
2018-07-27T10:59:55.498Z,26.64
2018-07-27T11:01:00.338Z,26.70
2018-07-27T11:02:05.183Z,26.64
2018-07-27T11:03:11.893Z,26.30
2018-07-27T11:04:16.746Z,26.65
2018-07-27T11:05:25.385Z,26.32
2018-07-27T11:06:31.494Z,25.96
2018-07-27T11:07:36.334Z,26.22
2018-07-27T11:08:42.255Z,26.44
2018-07-27T11:09:48.328Z,26.33
2018-07-27T11:10:54.398Z,25.92
2018-07-27T11:12:02.259Z,25.85
2018-07-27T11:13:07.706Z,26.13
2018-07-27T11:14:12.464Z,25.77
2018-07-27T11:15:17.364Z,25.75
2018-07-27T11:16:22.527Z,25.89
2018-07-27T11:17:29.015Z,25.76
2018-07-27T11:18:35.506Z,26.00
2018-07-27T11:19:41.040Z,25.77
2018-07-27T11:20:46.733Z,26.04
2018-07-27T11:21:51.538Z,25.64
2018-07-27T11:22:59.630Z,25.33
2018-07-27T11:24:05.066Z,25.08
2018-07-27T11:25:10.713Z,25.79
2018-07-27T11:26:30.411Z,25.17
2018-07-27T11:27:35.225Z,25.16
2018-07-27T11:28:42.306Z,25.68
2018-07-27T11:29:47.536Z,25.60
2018-07-27T11:30:59.532Z,25.20
2018-07-27T11:32:04.460Z,25.07
2018-07-27T11:33:10.520Z,25.31
2018-07-27T11:34:15.693Z,25.44
2018-07-27T11:35:21.388Z,25.19
2018-07-27T11:36:26.206Z,25.25
2018-07-27T11:37:31.093Z,25.11
2018-07-27T11:38:37.509Z,24.92
2018-07-27T11:39:44.221Z,25.01
2018-07-27T11:40:49.371Z,24.95
2018-07-27T11:41:57.090Z,24.41
2018-07-27T11:43:01.851Z,24.62
2018-07-27T11:44:09.301Z,25.20
2018-07-27T11:45:14.313Z,25.26
2018-07-27T11:46:19.364Z,24.99
2018-07-27T11:47:25.310Z,24.45
2018-07-27T11:48:30.178Z,24.35
2018-07-27T11:49:35.305Z,24.27
2018-07-27T11:50:40.779Z,24.24
2018-07-27T11:51:46.112Z,23.68
2018-07-27T11:52:51.375Z,23.91
2018-07-27T11:53:58.095Z,23.83
2018-07-27T11:56:13.721Z,23.52
2018-07-27T11:57:18.665Z,23.11
2018-07-27T11:58:25.331Z,23.25
2018-07-27T11:59:33.424Z,23.37
2018-07-27T12:00:38.258Z,23.15
2018-07-27T12:01:43.380Z,23.29
2018-07-27T12:02:48.190Z,23.40
2018-07-27T12:03:53.916Z,23.10
2018-07-27T12:04:59.625Z,23.05
2018-07-27T12:06:04.725Z,23.19
2018-07-27T12:07:09.668Z,23.09
2018-07-27T12:08:16.290Z,23.28
2018-07-27T12:09:21.841Z,23.13
2018-07-27T12:10:27.578Z,22.82
2018-07-27T12:11:32.840Z,22.91
2018-07-27T12:12:40.661Z,23.39
2018-07-27T12:13:48.492Z,23.37
2018-07-27T12:14:53.530Z,23.17
2018-07-27T12:15:58.385Z,23.47
2018-07-27T12:17:03.820Z,23.15
2018-07-27T12:18:09.156Z,22.87
2018-07-27T12:19:14.643Z,22.97
2018-07-27T12:20:19.990Z,23.33
2018-07-27T12:21:24.799Z,22.90
2018-07-27T12:22:29.617Z,23.02
2018-07-27T12:23:34.471Z,23.33
2018-07-27T12:24:39.269Z,23.29
2018-07-27T12:25:45.908Z,23.20
2018-07-27T12:26:50.935Z,22.89
2018-07-27T12:27:57.240Z,23.44
2018-07-27T12:29:02.867Z,23.51
2018-07-27T12:30:07.839Z,23.49
2018-07-27T12:31:12.819Z,22.89
2018-07-27T12:32:18.082Z,22.34
2018-07-27T12:33:22.915Z,21.73
2018-07-27T12:34:27.781Z,21.36
2018-07-27T12:35:32.668Z,21.41
2018-07-27T12:36:37.697Z,21.58
2018-07-27T12:37:43.387Z,21.37
2018-07-27T12:38:48.593Z,21.92
2018-07-27T12:39:56.086Z,21.54
2018-07-27T12:41:00.854Z,22.01
2018-07-27T12:42:06.539Z,22.03
2018-07-27T12:43:12.541Z,22.11
2018-07-27T12:44:19.692Z,22.06
2018-07-27T12:45:24.867Z,21.86
2018-07-27T12:46:30.201Z,21.58
2018-07-27T12:47:35.635Z,21.17
2018-07-27T12:48:40.494Z,20.83
2018-07-27T12:49:45.289Z,20.68
2018-07-27T12:50:51.133Z,20.38
2018-07-27T12:51:56.780Z,20.63
2018-07-27T12:53:01.603Z,20.57
2018-07-27T12:54:06.798Z,20.32
2018-07-27T12:55:11.731Z,20.12
2018-07-27T12:56:16.572Z,20.54
2018-07-27T12:57:22.215Z,20.51
2018-07-27T12:58:27.121Z,20.90
2018-07-27T12:59:32.239Z,21.05
2018-07-27T13:00:37.688Z,20.52
2018-07-27T13:01:42.576Z,20.12
2018-07-27T13:02:47.751Z,20.00
2018-07-27T13:03:56.450Z,19.81
2018-07-27T13:05:03.300Z,19.77
2018-07-27T13:06:08.204Z,19.50
2018-07-27T13:07:13.351Z,19.64
2018-07-27T13:08:18.222Z,19.26
2018-07-27T13:09:24.003Z,19.07
2018-07-27T13:10:29.366Z,18.47
2018-07-27T13:11:34.309Z,18.71
2018-07-27T13:12:39.980Z,18.56
2018-07-27T13:13:44.769Z,17.95
2018-07-27T13:14:49.564Z,18.38
2018-07-27T13:15:54.434Z,18.18
2018-07-27T13:17:00.660Z,17.38
2018-07-27T13:18:05.871Z,17.11
2018-07-27T13:19:13.224Z,17.40
2018-07-27T13:20:18.441Z,17.33
2018-07-27T13:21:23.245Z,17.76
2018-07-27T13:22:28.756Z,17.10
2018-07-27T13:23:33.853Z,17.12
2018-07-27T13:25:03.478Z,17.05
2018-07-27T13:25:44.469Z,17.76
2018-07-27T13:26:49.309Z,18.18
2018-07-27T13:27:55.098Z,18.87
2018-07-27T13:29:02.391Z,18.97
2018-07-27T13:30:08.687Z,19.40
2018-07-27T13:31:14.198Z,19.39
2018-07-27T13:32:20.206Z,19.58
2018-07-27T13:33:25.279Z,19.97
2018-07-27T13:35:03.268Z,20.29
2018-07-27T13:36:08.756Z,20.75
2018-07-27T13:37:14.488Z,20.69
2018-07-27T13:38:19.438Z,20.67
2018-07-27T13:39:24.339Z,19.89
2018-07-27T13:40:29.267Z,19.79
2018-07-27T13:41:34.145Z,19.61
2018-07-27T13:42:40.461Z,19.87
2018-07-27T13:43:46.446Z,19.66
2018-07-27T13:44:51.405Z,19.42
2018-07-27T13:45:56.474Z,19.62
2018-07-27T13:47:06.072Z,19.57
2018-07-27T13:48:11.103Z,19.73
2018-07-27T13:49:19.082Z,19.15
2018-07-27T13:50:25.081Z,19.37
2018-07-27T13:51:30.190Z,19.73
2018-07-27T13:52:35.705Z,20.20
2018-07-27T13:53:41.199Z,20.25
2018-07-27T13:54:46.065Z,20.15
2018-07-27T13:55:50.972Z,19.60
2018-07-27T13:56:56.151Z,19.28
2018-07-27T13:58:01.138Z,19.33
2018-07-27T13:59:07.513Z,19.96
2018-07-27T14:00:14.457Z,19.86
2018-07-27T14:01:21.196Z,20.10
2018-07-27T14:02:27.007Z,19.85
2018-07-27T14:03:32.316Z,19.71
2018-07-27T14:04:37.214Z,18.75
2018-07-27T14:05:41.992Z,18.66
2018-07-27T14:06:48.513Z,18.47
2018-07-27T14:07:54.281Z,18.64
2018-07-27T14:09:02.321Z,19.66
2018-07-27T14:10:07.387Z,20.02
2018-07-27T14:11:13.170Z,20.41
2018-07-27T14:12:21.693Z,20.41
2018-07-27T14:13:27.380Z,20.27
2018-07-27T14:14:32.151Z,20.58
2018-07-27T14:15:37.059Z,19.88
2018-07-27T14:16:42.812Z,19.83
2018-07-27T14:17:48.413Z,20.03
2018-07-27T14:18:54.374Z,20.76
2018-07-27T14:20:00.292Z,20.45
2018-07-27T14:21:05.160Z,20.21
2018-07-27T14:22:11.245Z,20.03
2018-07-27T14:23:24.734Z,19.20
2018-07-27T14:24:29.659Z,18.60
2018-07-27T14:25:35.642Z,18.09
2018-07-27T14:26:40.600Z,18.34
2018-07-27T14:27:45.475Z,18.50
2018-07-27T14:28:50.722Z,19.40
2018-07-27T14:29:56.032Z,20.14
2018-07-27T14:31:00.837Z,20.01
2018-07-27T14:32:06.235Z,19.74
2018-07-27T14:51:27.262Z,17.61
2018-07-27T14:52:35.627Z,17.92
2018-07-27T14:53:40.431Z,18.72
2018-07-27T14:54:45.183Z,19.44
2018-07-27T14:55:49.949Z,20.08
2018-07-27T14:56:55.020Z,20.15
2018-07-27T14:58:02.007Z,20.40
2018-07-27T14:59:07.821Z,20.51
2018-07-27T15:00:12.588Z,19.71
2018-07-27T15:01:17.703Z,19.65